createdAt,value
2019-03-20T00:00:35.737Z,17.62
2019-03-20T00:03:04.609Z,16.70
2019-03-20T00:05:33.116Z,16.25
2019-03-20T00:08:01.684Z,19.05
2019-03-20T00:10:30.297Z,19.45
2019-03-20T00:12:58.857Z,18.73
2019-03-20T00:15:27.345Z,17.02
2019-03-20T00:17:55.893Z,16.67
2019-03-20T00:20:24.477Z,15.28
2019-03-20T00:22:52.988Z,17.35
2019-03-20T00:25:21.467Z,16.07
2019-03-20T00:27:50.615Z,15.90
2019-03-20T00:30:20.157Z,17.73
2019-03-20T00:32:48.686Z,16.73
2019-03-20T00:35:17.254Z,17.80
2019-03-20T00:37:45.775Z,17.75
2019-03-20T00:40:15.505Z,17.90
2019-03-20T00:42:44.104Z,16.80
2019-03-20T00:45:19.725Z,14.40
2019-03-20T00:47:48.262Z,14.80
2019-03-20T00:50:18.657Z,14.68
2019-03-20T00:52:47.200Z,14.60
2019-03-20T00:55:19.147Z,15.25
2019-03-20T00:57:48.311Z,15.50
2019-03-20T01:00:19.484Z,14.98
2019-03-20T01:02:48.123Z,14.83
2019-03-20T01:05:16.860Z,14.35
2019-03-20T01:07:45.576Z,14.00
2019-03-20T01:10:21.952Z,13.90
2019-03-20T01:12:51.450Z,14.93
2019-03-20T01:15:20.039Z,14.83
2019-03-20T01:17:48.694Z,14.83
2019-03-20T01:20:33.038Z,13.88
2019-03-20T01:23:35.034Z,15.72
2019-03-20T01:26:04.625Z,14.03
2019-03-20T01:28:33.153Z,14.45
2019-03-20T01:31:01.633Z,15.15
2019-03-20T01:33:30.134Z,15.55
2019-03-20T01:35:58.594Z,14.95
2019-03-20T01:38:27.105Z,15.35
2019-03-20T01:40:55.619Z,15.95
2019-03-20T01:43:24.181Z,15.10
2019-03-20T01:45:52.768Z,14.33
2019-03-20T01:48:21.282Z,14.90
2019-03-20T01:50:49.766Z,15.32
2019-03-20T01:53:18.267Z,15.63
2019-03-20T01:55:46.811Z,15.72
2019-03-20T01:58:15.284Z,14.98
2019-03-20T02:00:43.862Z,17.40
2019-03-20T02:03:12.316Z,14.10
2019-03-20T02:05:40.864Z,16.32
2019-03-20T02:08:09.439Z,14.23
2019-03-20T02:10:38.016Z,15.08
2019-03-20T02:13:07.397Z,15.75
2019-03-20T02:15:39.386Z,13.95
2019-03-20T02:18:06.317Z,13.32
2019-03-20T02:20:34.914Z,14.10
2019-03-20T02:23:03.512Z,14.78
2019-03-20T02:25:32.484Z,14.43
2019-03-20T02:28:11.048Z,15.28
2019-03-20T02:30:40.413Z,16.35
2019-03-20T02:33:11.762Z,16.80
2019-03-20T02:35:51.577Z,17.27
2019-03-20T02:38:10.563Z,14.33
2019-03-20T02:40:39.159Z,14.58
2019-03-20T02:43:07.845Z,15.28
2019-03-20T02:45:36.344Z,15.38
2019-03-20T02:48:04.966Z,15.63
2019-03-20T02:50:33.531Z,16.20
2019-03-20T02:53:02.047Z,16.15
2019-03-20T02:55:30.703Z,16.90
2019-03-20T02:57:59.340Z,16.23
2019-03-20T03:00:27.958Z,13.78
2019-03-20T03:02:56.511Z,14.30
2019-03-20T03:05:25.161Z,14.85
2019-03-20T03:07:53.697Z,17.48
2019-03-20T03:10:22.260Z,15.80
2019-03-20T03:12:50.796Z,16.95
2019-03-20T03:15:19.388Z,17.35
2019-03-20T03:17:47.873Z,17.92
2019-03-20T03:20:16.621Z,18.55
2019-03-20T03:22:45.369Z,19.45
2019-03-20T03:25:14.660Z,18.15
2019-03-20T03:27:43.276Z,21.75
2019-03-20T03:30:16.779Z,18.48
2019-03-20T03:32:45.475Z,19.02
2019-03-20T03:35:18.326Z,18.40
2019-03-20T03:37:44.757Z,20.50
2019-03-20T03:40:18.104Z,18.07
2019-03-20T03:42:46.981Z,20.00
2019-03-20T03:45:18.216Z,17.25
2019-03-20T03:47:46.797Z,16.73
2019-03-20T03:50:15.540Z,17.87
2019-03-20T03:52:44.235Z,19.12
2019-03-20T03:55:15.044Z,25.15
2019-03-20T03:57:44.223Z,17.32
2019-03-20T04:00:15.782Z,16.75
2019-03-20T04:02:44.321Z,16.65
2019-03-20T04:05:13.627Z,18.05
2019-03-20T04:07:42.158Z,18.15
2019-03-20T04:10:15.402Z,20.37
2019-03-20T04:12:44.034Z,19.30
2019-03-20T04:15:16.348Z,18.57
2019-03-20T04:17:44.925Z,18.65
2019-03-20T04:20:15.109Z,18.23
2019-03-20T04:22:43.755Z,19.00
2019-03-20T04:25:12.688Z,18.87
2019-03-20T04:27:41.340Z,18.80
2019-03-20T04:30:12.938Z,21.00
2019-03-20T04:32:41.459Z,22.35
2019-03-20T04:35:10.483Z,20.85
2019-03-20T04:37:39.100Z,20.17
2019-03-20T04:40:10.727Z,19.50
2019-03-20T04:42:39.378Z,18.98
2019-03-20T04:45:12.797Z,15.38
2019-03-20T04:47:41.429Z,16.12
2019-03-20T04:50:14.356Z,17.77
2019-03-20T04:52:42.858Z,17.10
2019-03-20T04:55:11.542Z,19.17
2019-03-20T04:57:52.815Z,17.80
2019-03-20T05:00:22.746Z,18.77
2019-03-20T05:02:51.394Z,17.87
2019-03-20T05:05:19.964Z,16.95
2019-03-20T05:10:51.937Z,16.57
2019-03-20T05:13:20.891Z,18.52
2019-03-20T05:15:54.233Z,16.67
2019-03-20T05:18:22.816Z,18.42
2019-03-20T05:20:53.239Z,17.40
2019-03-20T05:23:22.092Z,17.67
2019-03-20T05:25:50.761Z,16.55
2019-03-20T05:28:19.307Z,15.50
2019-03-20T05:30:47.864Z,18.45
2019-03-20T05:33:16.392Z,16.65
2019-03-20T05:35:44.927Z,17.30
2019-03-20T05:38:13.460Z,16.65
2019-03-20T05:40:41.977Z,16.15
2019-03-20T05:43:10.524Z,17.23
2019-03-20T05:45:39.085Z,18.10
2019-03-20T05:48:07.677Z,17.15
2019-03-20T05:50:36.145Z,16.70
2019-03-20T05:53:04.635Z,16.55
2019-03-20T05:55:33.256Z,18.50
2019-03-20T05:58:01.819Z,17.15
2019-03-20T06:00:49.689Z,18.37
2019-03-20T06:03:18.278Z,17.48
2019-03-20T06:05:46.891Z,16.37
2019-03-20T06:08:15.486Z,18.10
2019-03-20T06:10:44.026Z,15.98
2019-03-20T06:13:12.666Z,16.15
2019-03-20T06:15:41.138Z,16.35
2019-03-20T06:18:09.728Z,17.42
2019-03-20T06:20:38.261Z,17.80
2019-03-20T06:23:06.882Z,17.30
2019-03-20T06:25:35.540Z,16.00
2019-03-20T06:28:04.218Z,17.30
2019-03-20T06:30:32.803Z,18.17
2019-03-20T06:33:01.333Z,17.40
2019-03-20T06:35:29.909Z,19.37
2019-03-20T06:37:58.447Z,19.15
2019-03-20T06:40:26.973Z,17.27
2019-03-20T06:42:55.545Z,16.42
2019-03-20T06:45:24.161Z,18.45
2019-03-20T06:47:52.722Z,17.57
2019-03-20T06:50:22.996Z,17.30
2019-03-20T06:52:51.583Z,15.55
2019-03-20T06:55:20.132Z,18.60
2019-03-20T06:57:48.800Z,15.28
2019-03-20T07:00:42.349Z,16.27
2019-03-20T07:03:36.701Z,14.95
2019-03-20T07:06:29.575Z,13.75
2019-03-20T07:09:01.182Z,15.05
2019-03-20T07:11:28.660Z,15.00
2019-03-20T07:13:57.257Z,15.45
2019-03-20T07:16:25.793Z,13.60
2019-03-20T07:18:54.359Z,12.28
2019-03-20T07:21:22.912Z,11.48
2019-03-20T07:23:51.441Z,11.20
2019-03-20T07:26:20.033Z,10.95
2019-03-20T07:28:48.616Z,10.28
2019-03-20T07:31:17.199Z,10.03
2019-03-20T07:33:45.849Z,10.10
2019-03-20T07:36:14.554Z,8.35
2019-03-20T07:38:43.178Z,9.45
2019-03-20T07:41:11.769Z,9.10
2019-03-20T07:43:40.307Z,11.22
2019-03-20T07:46:08.849Z,9.00
2019-03-20T07:48:37.379Z,9.20
2019-03-20T07:51:05.944Z,8.85
2019-03-20T07:53:34.518Z,9.13
2019-03-20T07:56:03.155Z,8.83
2019-03-20T07:58:31.708Z,8.03
2019-03-20T08:01:00.212Z,7.65
2019-03-20T08:03:28.739Z,7.45
2019-03-20T08:05:57.457Z,8.23
2019-03-20T08:08:26.064Z,9.00
2019-03-20T08:10:54.574Z,9.05
2019-03-20T08:13:23.094Z,7.08
2019-03-20T08:15:51.653Z,8.58
2019-03-20T08:18:20.288Z,7.70
2019-03-20T08:20:48.794Z,7.47
2019-03-20T08:23:17.337Z,6.93
2019-03-20T08:25:45.868Z,7.60
2019-03-20T08:28:14.500Z,8.27
2019-03-20T08:30:43.004Z,6.67
2019-03-20T08:33:11.688Z,6.77
2019-03-20T08:35:40.202Z,6.83
2019-03-20T08:38:17.696Z,7.20
2019-03-20T08:40:38.951Z,6.33
2019-03-20T08:43:10.567Z,6.10
2019-03-20T08:45:39.225Z,6.90
2019-03-20T08:48:07.844Z,5.97
2019-03-20T08:50:36.466Z,8.20
2019-03-20T08:53:05.116Z,8.17
2019-03-20T08:55:33.772Z,7.40
2019-03-20T08:58:02.531Z,7.00
2019-03-20T09:00:31.388Z,6.20
2019-03-20T09:02:59.999Z,5.80
2019-03-20T09:05:28.638Z,6.17
2019-03-20T09:07:57.337Z,6.87
2019-03-20T09:10:26.849Z,6.30
2019-03-20T09:12:55.550Z,6.37
2019-03-20T09:15:24.188Z,6.17
2019-03-20T09:17:52.882Z,6.37
2019-03-20T09:20:22.600Z,5.50
2019-03-20T09:22:51.333Z,6.10
2019-03-20T09:25:26.724Z,6.80
2019-03-20T09:27:55.364Z,7.23
2019-03-20T09:30:28.989Z,6.60
2019-03-20T09:32:57.932Z,6.10
2019-03-20T09:35:26.570Z,5.90
2019-03-20T09:37:55.208Z,7.20
2019-03-20T09:40:27.303Z,6.43
2019-03-20T09:42:55.887Z,7.37
2019-03-20T09:45:24.996Z,6.80
2019-03-20T09:47:53.651Z,6.20
2019-03-20T09:50:24.195Z,6.40
2019-03-20T09:52:52.660Z,5.93
2019-03-20T09:55:21.274Z,6.30
2019-03-20T09:57:49.969Z,6.50
2019-03-20T10:00:26.606Z,6.27
2019-03-20T10:02:55.683Z,7.00
2019-03-20T10:05:24.342Z,7.10
2019-03-20T10:07:53.055Z,6.37
2019-03-20T10:10:23.886Z,7.00
2019-03-20T10:12:52.617Z,6.50
2019-03-20T10:15:25.778Z,6.50
2019-03-20T10:17:58.614Z,6.80
2019-03-20T10:20:29.749Z,6.67
2019-03-20T10:22:58.367Z,6.67
2019-03-20T10:25:27.078Z,7.10
2019-03-20T10:27:57.822Z,6.53
2019-03-20T10:30:27.535Z,6.47
2019-03-20T10:32:56.127Z,6.20
2019-03-20T10:35:24.813Z,6.00
2019-03-20T10:37:53.437Z,5.63
2019-03-20T10:40:22.833Z,5.90
2019-03-20T10:42:51.677Z,6.53
2019-03-20T10:45:20.519Z,6.47
2019-03-20T10:47:52.525Z,5.90
2019-03-20T10:50:27.083Z,5.90
2019-03-20T10:52:55.839Z,5.60
2019-03-20T10:55:24.527Z,6.50
2019-03-20T10:57:53.246Z,6.30
2019-03-20T11:00:31.318Z,5.97
2019-03-20T11:03:00.016Z,5.83
2019-03-20T11:05:28.697Z,5.83
2019-03-20T11:07:57.304Z,6.83
2019-03-20T11:10:26.752Z,6.33
2019-03-20T11:12:55.691Z,5.67
2019-03-20T11:15:29.579Z,6.70
2019-03-20T11:17:57.341Z,5.80
2019-03-20T11:20:26.684Z,6.97
2019-03-20T11:22:55.452Z,5.23
2019-03-20T11:25:28.825Z,5.50
2019-03-20T11:27:57.487Z,6.17
2019-03-20T11:30:30.027Z,5.50
2019-03-20T11:32:58.788Z,4.93
2019-03-20T11:35:27.382Z,6.50
2019-03-20T11:37:55.967Z,5.70
2019-03-20T11:40:32.462Z,5.93
2019-03-20T11:43:01.107Z,5.37
2019-03-20T11:45:29.729Z,5.60
2019-03-20T11:47:58.422Z,5.87
2019-03-20T11:50:35.771Z,5.33
2019-03-20T11:53:05.245Z,5.27
2019-03-20T11:55:33.828Z,6.77
2019-03-20T11:58:02.532Z,6.03
2019-03-20T12:00:31.315Z,5.83
2019-03-20T12:02:59.962Z,5.73
2019-03-20T12:05:31.923Z,4.90
2019-03-20T12:08:00.674Z,6.20
2019-03-20T12:10:33.232Z,6.37
2019-03-20T12:13:01.997Z,5.20
2019-03-20T12:15:30.715Z,7.30
2019-03-20T12:17:59.352Z,5.50
2019-03-20T12:20:30.869Z,5.50
2019-03-20T12:22:59.572Z,6.33
2019-03-20T12:25:39.085Z,6.60
2019-03-20T12:28:07.735Z,6.00
2019-03-20T12:30:37.713Z,6.10
2019-03-20T12:33:07.355Z,6.40
2019-03-20T12:35:46.911Z,6.60
2019-03-20T12:38:15.698Z,6.20
2019-03-20T12:40:44.400Z,5.83
2019-03-20T12:43:13.019Z,6.33
2019-03-20T12:45:41.700Z,7.20
2019-03-20T12:48:29.726Z,6.93
2019-03-20T12:50:58.413Z,6.43
2019-03-20T12:53:32.451Z,6.43
2019-03-20T12:56:01.226Z,6.50
2019-03-20T12:58:29.843Z,7.63
2019-03-20T13:00:58.512Z,6.67
2019-03-20T13:03:27.102Z,6.13
2019-03-20T13:05:55.786Z,6.83
2019-03-20T13:08:24.399Z,6.23
2019-03-20T13:10:52.977Z,6.47
2019-03-20T13:13:21.718Z,6.43
2019-03-20T13:15:50.293Z,6.23
2019-03-20T13:18:19.001Z,6.23
2019-03-20T13:20:47.671Z,6.50
2019-03-20T13:23:22.063Z,6.30
2019-03-20T13:25:50.707Z,6.67
2019-03-20T13:28:38.640Z,7.17
2019-03-20T13:31:13.189Z,6.43
2019-03-20T13:33:41.820Z,5.20
2019-03-20T13:36:10.395Z,6.97
2019-03-20T13:38:39.034Z,6.53
2019-03-20T13:41:07.699Z,6.27
2019-03-20T13:43:55.694Z,5.90
2019-03-20T13:46:24.280Z,6.93
2019-03-20T13:48:52.873Z,6.20
2019-03-20T13:51:21.491Z,6.37
2019-03-20T13:53:51.796Z,6.67
2019-03-20T13:56:20.442Z,6.33
2019-03-20T13:58:49.039Z,5.80
2019-03-20T14:01:17.659Z,6.60
2019-03-20T14:03:46.248Z,6.57
2019-03-20T14:06:14.881Z,6.60
2019-03-20T14:08:43.498Z,6.57
2019-03-20T14:11:12.080Z,6.27
2019-03-20T14:13:40.884Z,6.40
2019-03-20T14:16:28.913Z,6.10
2019-03-20T14:18:57.559Z,6.40
2019-03-20T14:21:26.163Z,6.83
2019-03-20T14:23:54.789Z,6.57
2019-03-20T14:26:23.449Z,7.10
2019-03-20T14:28:52.121Z,6.97
2019-03-20T14:31:20.721Z,6.53
2019-03-20T14:33:49.567Z,6.03
2019-03-20T14:36:18.253Z,6.43
2019-03-20T14:38:46.897Z,6.60
2019-03-20T14:41:21.635Z,6.63
2019-03-20T14:43:45.789Z,7.03
2019-03-20T14:46:14.461Z,7.30
2019-03-20T14:48:43.115Z,6.20
2019-03-20T14:51:11.807Z,6.60
2019-03-20T14:53:40.420Z,6.10
2019-03-20T14:56:09.097Z,6.10
2019-03-20T14:58:37.748Z,7.43
2019-03-20T15:01:06.349Z,6.83
2019-03-20T15:03:34.925Z,6.80
2019-03-20T15:06:03.617Z,6.60
2019-03-20T15:08:32.235Z,6.47
2019-03-20T15:11:00.817Z,5.70
2019-03-20T15:13:29.430Z,6.80
2019-03-20T15:16:03.939Z,5.70
2019-03-20T15:18:32.671Z,5.90
2019-03-20T15:21:01.929Z,5.73
2019-03-20T15:23:30.511Z,5.80
2019-03-20T15:25:59.118Z,7.23
2019-03-20T15:28:27.702Z,6.13
2019-03-20T15:30:56.365Z,6.03
2019-03-20T15:33:25.032Z,6.40
2019-03-20T15:35:55.296Z,5.60
2019-03-20T15:38:24.013Z,5.33
2019-03-20T15:40:56.312Z,6.13
2019-03-20T15:43:22.954Z,5.40
2019-03-20T15:45:51.543Z,5.27
2019-03-20T15:48:20.296Z,5.30
2019-03-20T15:51:08.326Z,5.60
2019-03-20T15:53:36.989Z,5.60
2019-03-20T15:56:05.602Z,5.73
2019-03-20T15:58:34.218Z,6.07
2019-03-20T16:01:06.669Z,6.17
2019-03-20T16:03:38.680Z,6.50
2019-03-20T16:06:07.442Z,4.50
2019-03-20T16:08:36.056Z,5.20
2019-03-20T16:11:06.881Z,5.27
2019-03-20T16:13:35.019Z,5.30
2019-03-20T16:16:03.665Z,5.97
2019-03-20T16:18:32.297Z,5.53
2019-03-20T16:21:00.985Z,6.60
2019-03-20T16:23:29.593Z,5.30
2019-03-20T16:26:17.523Z,5.03
2019-03-20T16:28:46.146Z,6.03
2019-03-20T16:31:14.765Z,5.07
2019-03-20T16:33:43.410Z,5.53
2019-03-20T16:36:12.043Z,5.23
2019-03-20T16:38:40.659Z,5.20
2019-03-20T16:41:16.480Z,5.87
2019-03-20T16:43:39.597Z,4.90
2019-03-20T16:46:08.301Z,5.37
2019-03-20T16:48:36.878Z,5.40
2019-03-20T16:51:05.552Z,5.73
2019-03-20T16:53:34.297Z,5.53
2019-03-20T16:56:02.956Z,5.40
2019-03-20T16:58:31.626Z,5.03
2019-03-20T17:01:00.282Z,5.07
2019-03-20T17:03:28.955Z,7.23
2019-03-20T17:05:57.721Z,4.50
2019-03-20T17:08:26.336Z,5.17
2019-03-20T17:10:54.952Z,4.37
2019-03-20T17:13:23.539Z,4.80
2019-03-20T17:15:52.204Z,4.60
2019-03-20T17:18:20.885Z,4.37
2019-03-20T17:20:49.470Z,4.60
2019-03-20T17:23:18.073Z,4.97
2019-03-20T17:25:46.656Z,4.47
2019-03-20T17:28:15.261Z,3.90
2019-03-20T17:30:48.907Z,5.12
2019-03-20T17:33:17.533Z,4.80
2019-03-20T17:35:46.208Z,4.20
2019-03-20T17:38:14.829Z,4.43
2019-03-20T17:40:43.514Z,4.67
2019-03-20T17:43:12.140Z,5.20
2019-03-20T17:45:40.757Z,5.60
2019-03-20T17:48:09.350Z,4.27
2019-03-20T17:50:38.057Z,5.28
2019-03-20T17:53:06.801Z,4.00
2019-03-20T17:55:35.402Z,4.95
2019-03-20T17:58:04.435Z,4.75
2019-03-20T18:00:47.270Z,5.58
2019-03-20T18:03:15.913Z,5.03
2019-03-20T18:05:44.679Z,4.50
2019-03-20T18:08:13.413Z,4.65
2019-03-20T18:10:42.090Z,5.22
2019-03-20T18:13:10.738Z,5.70
2019-03-20T18:15:39.419Z,7.72
2019-03-20T18:18:08.737Z,4.70
2019-03-20T18:20:38.145Z,4.62
2019-03-20T18:23:07.602Z,6.30
2019-03-20T18:25:36.276Z,6.33
2019-03-20T18:28:05.159Z,6.70
2019-03-20T18:30:36.219Z,7.47
2019-03-20T18:33:05.278Z,6.00
2019-03-20T18:35:33.925Z,6.95
2019-03-20T18:38:02.628Z,6.78
2019-03-20T18:40:31.221Z,6.83
2019-03-20T18:42:59.793Z,6.65
2019-03-20T18:45:28.412Z,5.50
2019-03-20T18:47:57.912Z,6.22
2019-03-20T18:50:45.805Z,5.97
2019-03-20T18:53:14.344Z,5.65
2019-03-20T18:55:43.047Z,6.10
2019-03-20T18:58:11.773Z,6.10
2019-03-20T19:00:40.418Z,6.58
2019-03-20T19:03:20.901Z,5.90
2019-03-20T19:05:52.758Z,6.37
2019-03-20T19:08:21.446Z,6.00
2019-03-20T19:10:50.271Z,5.30
2019-03-20T19:13:18.870Z,5.80
2019-03-20T19:15:47.437Z,6.25
2019-03-20T19:18:16.273Z,6.55
2019-03-20T19:20:45.120Z,5.35
2019-03-20T19:23:13.739Z,5.78
2019-03-20T19:25:42.221Z,5.92
2019-03-20T19:28:10.798Z,5.25
2019-03-20T19:30:39.480Z,5.33
2019-03-20T19:33:08.162Z,6.30
2019-03-20T19:35:36.786Z,6.47
2019-03-20T19:38:05.491Z,6.58
2019-03-20T19:40:34.139Z,6.40
2019-03-20T19:43:02.693Z,6.03
2019-03-20T19:45:31.357Z,6.08
2019-03-20T19:48:00.024Z,5.37
2019-03-20T19:50:31.602Z,6.35
2019-03-20T19:53:00.161Z,5.40
2019-03-20T19:55:28.693Z,6.45
2019-03-20T19:57:57.267Z,5.78
2019-03-20T20:00:27.242Z,6.15
2019-03-20T20:02:55.938Z,7.42
2019-03-20T20:05:24.719Z,6.40
2019-03-20T20:07:53.194Z,8.58
2019-03-20T20:10:21.979Z,7.25
2019-03-20T20:12:50.510Z,6.00
2019-03-20T20:15:33.685Z,6.20
2019-03-20T20:18:02.456Z,5.37
2019-03-20T20:20:39.257Z,6.05
2019-03-20T20:23:08.196Z,6.08
2019-03-20T20:25:36.797Z,6.58
2019-03-20T20:28:05.448Z,6.80
2019-03-20T20:30:34.321Z,9.73
2019-03-20T20:33:03.060Z,9.33
2019-03-20T20:35:31.624Z,7.45
2019-03-20T20:38:00.164Z,6.20
2019-03-20T20:40:31.901Z,5.95
2019-03-20T20:43:00.466Z,6.03
2019-03-20T20:45:28.992Z,6.75
2019-03-20T20:47:57.656Z,6.50
2019-03-20T20:50:26.343Z,6.70
2019-03-20T20:52:54.973Z,6.90
2019-03-20T20:55:24.293Z,7.20
2019-03-20T20:58:05.007Z,7.17
2019-03-20T21:00:35.512Z,6.20
2019-03-20T21:03:04.121Z,6.78
2019-03-20T21:05:32.733Z,5.72
2019-03-20T21:08:01.323Z,6.60
2019-03-20T21:10:29.838Z,6.60
2019-03-20T21:12:58.335Z,6.65
2019-03-20T21:15:40.073Z,7.10
2019-03-20T21:18:24.506Z,5.97
2019-03-20T21:20:53.094Z,6.22
2019-03-20T21:23:39.677Z,7.03
2019-03-20T21:26:23.440Z,6.78
2019-03-20T21:29:11.768Z,7.22
2019-03-20T21:31:46.223Z,6.30
2019-03-20T21:34:32.645Z,6.28
2019-03-20T21:37:13.056Z,7.70
2019-03-20T21:39:41.619Z,6.97
2019-03-20T21:42:13.264Z,6.15
2019-03-20T21:45:05.762Z,7.05
2019-03-20T21:47:33.932Z,6.45
2019-03-20T21:50:20.219Z,6.83
2019-03-20T21:52:48.865Z,6.35
2019-03-20T21:55:23.211Z,6.22
2019-03-20T21:58:04.142Z,6.97
2019-03-20T22:00:56.452Z,7.47
2019-03-20T22:03:25.369Z,7.00
2019-03-20T22:06:05.873Z,7.03
2019-03-20T22:08:34.766Z,7.15
2019-03-20T22:11:15.187Z,7.35
2019-03-20T22:13:47.054Z,7.58
2019-03-20T22:16:42.952Z,9.00
2019-03-20T22:19:32.774Z,8.13
2019-03-20T22:22:09.983Z,8.63
2019-03-20T22:24:44.533Z,7.70
2019-03-20T22:27:41.696Z,7.95
2019-03-20T22:30:10.301Z,8.50
2019-03-20T22:32:58.597Z,7.97
2019-03-20T22:35:33.164Z,8.13
2019-03-20T22:38:04.056Z,9.98
2019-03-20T22:40:41.746Z,8.03
2019-03-20T22:43:16.154Z,9.90
2019-03-20T22:46:19.213Z,8.45
2019-03-20T22:49:02.136Z,8.35
2019-03-20T22:51:48.534Z,8.80
2019-03-20T22:54:52.142Z,9.45
2019-03-20T22:57:29.625Z,8.78
2019-03-20T22:59:58.189Z,9.63
2019-03-20T23:02:49.373Z,9.23
2019-03-20T23:05:17.967Z,9.40
2019-03-20T23:07:46.442Z,9.63
2019-03-20T23:10:18.225Z,10.58
2019-03-20T23:12:46.826Z,9.10
2019-03-20T23:15:18.415Z,10.20
2019-03-20T23:17:47.023Z,9.35
2019-03-20T23:20:21.505Z,9.33
2019-03-20T23:22:50.142Z,10.38
2019-03-20T23:25:18.682Z,11.10
2019-03-20T23:27:47.232Z,9.10
2019-03-20T23:30:18.863Z,10.63
2019-03-20T23:32:47.515Z,9.93
2019-03-20T23:35:16.147Z,9.85
2019-03-20T23:37:44.733Z,10.38
2019-03-20T23:40:15.418Z,10.55
2019-03-20T23:42:46.478Z,10.05
2019-03-20T23:45:17.955Z,10.20
2019-03-20T23:47:58.423Z,10.23
2019-03-20T23:50:26.984Z,10.50
2019-03-20T23:52:55.465Z,10.20
2019-03-20T23:55:24.120Z,11.80
2019-03-20T23:57:52.598Z,11.75
